sensor_id;sensor_type;location;lat;lon;timestamp;P1;durP1;ratioP1;P2;durP2;ratioP2
59458;SDS011;45269;43.568;22.244;2022-11-20T00:01:24;45.20;;;37.38;;
59458;SDS011;45269;43.568;22.244;2022-11-20T00:06:16;35.33;;;29.57;;
59458;SDS011;45269;43.568;22.244;2022-11-20T00:08:42;31.23;;;25.15;;
59458;SDS011;45269;43.568;22.244;2022-11-20T00:11:09;23.45;;;18.25;;
59458;SDS011;45269;43.568;22.244;2022-11-20T00:13:35;10.15;;;7.32;;
59458;SDS011;45269;43.568;22.244;2022-11-20T00:16:00;9.90;;;8.90;;
59458;SDS011;45269;43.568;22.244;2022-11-20T00:18:27;6.05;;;5.32;;
59458;SDS011;45269;43.568;22.244;2022-11-20T00:20:52;6.50;;;5.82;;
59458;SDS011;45269;43.568;22.244;2022-11-20T00:23:18;7.55;;;6.32;;
59458;SDS011;45269;43.568;22.244;2022-11-20T00:25:43;42.13;;;23.05;;
59458;SDS011;45269;43.568;22.244;2022-11-20T00:28:08;32.42;;;19.08;;
59458;SDS011;45269;43.568;22.244;2022-11-20T00:30:34;41.00;;;24.00;;
59458;SDS011;45269;43.568;22.244;2022-11-20T00:32:59;71.35;;;38.53;;
59458;SDS011;45269;43.568;22.244;2022-11-20T00:35:24;38.42;;;27.40;;
59458;SDS011;45269;43.568;22.244;2022-11-20T00:37:50;25.00;;;20.23;;
59458;SDS011;45269;43.568;22.244;2022-11-20T00:40:15;23.63;;;20.40;;
59458;SDS011;45269;43.568;22.244;2022-11-20T00:42:40;22.08;;;18.58;;
59458;SDS011;45269;43.568;22.244;2022-11-20T00:45:06;15.23;;;13.73;;
59458;SDS011;45269;43.568;22.244;2022-11-20T00:47:32;14.77;;;13.27;;
59458;SDS011;45269;43.568;22.244;2022-11-20T00:49:57;12.43;;;11.23;;
59458;SDS011;45269;43.568;22.244;2022-11-20T00:52:22;12.05;;;10.82;;
59458;SDS011;45269;43.568;22.244;2022-11-20T00:54:48;13.80;;;11.95;;
59458;SDS011;45269;43.568;22.244;2022-11-20T00:57:13;10.52;;;9.52;;
59458;SDS011;45269;43.568;22.244;2022-11-20T00:59:38;10.45;;;9.02;;
59458;SDS011;45269;43.568;22.244;2022-11-20T01:02:04;8.52;;;7.72;;
59458;SDS011;45269;43.568;22.244;2022-11-20T01:04:29;8.43;;;7.63;;
59458;SDS011;45269;43.568;22.244;2022-11-20T01:06:54;12.20;;;11.00;;
59458;SDS011;45269;43.568;22.244;2022-11-20T01:09:20;10.75;;;9.65;;
59458;SDS011;45269;43.568;22.244;2022-11-20T01:11:45;18.08;;;16.10;;
59458;SDS011;45269;43.568;22.244;2022-11-20T01:14:12;23.35;;;20.15;;
59458;SDS011;45269;43.568;22.244;2022-11-20T01:16:39;21.88;;;18.85;;
59458;SDS011;45269;43.568;22.244;2022-11-20T01:19:05;19.27;;;17.27;;
59458;SDS011;45269;43.568;22.244;2022-11-20T01:21:32;10.65;;;9.55;;
59458;SDS011;45269;43.568;22.244;2022-11-20T01:23:58;6.82;;;6.10;;
59458;SDS011;45269;43.568;22.244;2022-11-20T01:26:24;8.13;;;7.43;;
59458;SDS011;45269;43.568;22.244;2022-11-20T01:28:50;9.43;;;8.52;;
59458;SDS011;45269;43.568;22.244;2022-11-20T01:31:20;8.02;;;7.22;;
59458;SDS011;45269;43.568;22.244;2022-11-20T01:33:47;6.93;;;6.22;;
59458;SDS011;45269;43.568;22.244;2022-11-20T01:36:12;5.93;;;5.32;;
59458;SDS011;45269;43.568;22.244;2022-11-20T01:38:38;5.88;;;5.38;;
59458;SDS011;45269;43.568;22.244;2022-11-20T01:41:03;6.00;;;5.40;;
59458;SDS011;45269;43.568;22.244;2022-11-20T01:43:29;4.50;;;4.10;;
59458;SDS011;45269;43.568;22.244;2022-11-20T01:46:03;4.18;;;3.50;;
59458;SDS011;45269;43.568;22.244;2022-11-20T01:48:33;4.90;;;4.10;;
59458;SDS011;45269;43.568;22.244;2022-11-20T01:51:00;6.50;;;5.70;;
59458;SDS011;45269;43.568;22.244;2022-11-20T01:53:29;10.07;;;8.88;;
59458;SDS011;45269;43.568;22.244;2022-11-20T01:55:56;10.68;;;9.57;;
59458;SDS011;45269;43.568;22.244;2022-11-20T01:58:22;7.53;;;6.82;;
59458;SDS011;45269;43.568;22.244;2022-11-20T02:00:49;6.25;;;5.70;;
59458;SDS011;45269;43.568;22.244;2022-11-20T02:03:15;11.32;;;7.82;;
59458;SDS011;45269;43.568;22.244;2022-11-20T02:05:45;13.20;;;10.93;;
59458;SDS011;45269;43.568;22.244;2022-11-20T02:08:13;6.40;;;4.38;;
59458;SDS011;45269;43.568;22.244;2022-11-20T02:10:38;11.77;;;8.35;;
59458;SDS011;45269;43.568;22.244;2022-11-20T02:13:04;24.70;;;17.15;;
59458;SDS011;45269;43.568;22.244;2022-11-20T02:15:47;25.23;;;18.02;;
59458;SDS011;45269;43.568;22.244;2022-11-20T02:18:14;25.90;;;19.98;;
59458;SDS011;45269;43.568;22.244;2022-11-20T02:20:44;6.25;;;5.65;;
59458;SDS011;45269;43.568;22.244;2022-11-20T02:23:12;11.05;;;9.45;;
59458;SDS011;45269;43.568;22.244;2022-11-20T02:25:37;17.63;;;15.40;;
59458;SDS011;45269;43.568;22.244;2022-11-20T02:28:04;20.00;;;15.73;;
59458;SDS011;45269;43.568;22.244;2022-11-20T02:30:30;14.80;;;12.70;;
59458;SDS011;45269;43.568;22.244;2022-11-20T02:32:55;10.90;;;9.75;;
59458;SDS011;45269;43.568;22.244;2022-11-20T02:37:49;7.57;;;5.90;;
59458;SDS011;45269;43.568;22.244;2022-11-20T02:42:41;5.30;;;4.47;;
59458;SDS011;45269;43.568;22.244;2022-11-20T02:45:06;4.95;;;4.03;;
59458;SDS011;45269;43.568;22.244;2022-11-20T02:47:32;4.72;;;4.32;;
59458;SDS011;45269;43.568;22.244;2022-11-20T02:49:58;44.33;;;30.50;;
59458;SDS011;45269;43.568;22.244;2022-11-20T02:52:23;36.17;;;25.20;;
59458;SDS011;45269;43.568;22.244;2022-11-20T02:54:49;28.00;;;21.40;;
59458;SDS011;45269;43.568;22.244;2022-11-20T02:57:14;15.65;;;12.27;;
59458;SDS011;45269;43.568;22.244;2022-11-20T02:59:40;15.27;;;10.50;;
59458;SDS011;45269;43.568;22.244;2022-11-20T03:02:05;11.27;;;9.55;;
59458;SDS011;45269;43.568;22.244;2022-11-20T03:04:31;10.55;;;8.93;;
59458;SDS011;45269;43.568;22.244;2022-11-20T03:06:56;12.07;;;9.55;;
59458;SDS011;45269;43.568;22.244;2022-11-20T03:09:21;12.00;;;8.57;;
59458;SDS011;45269;43.568;22.244;2022-11-20T03:11:47;13.45;;;8.45;;
59458;SDS011;45269;43.568;22.244;2022-11-20T03:14:12;37.90;;;23.60;;
59458;SDS011;45269;43.568;22.244;2022-11-20T03:16:38;16.90;;;11.93;;
59458;SDS011;45269;43.568;22.244;2022-11-20T03:19:03;19.75;;;13.02;;
59458;SDS011;45269;43.568;22.244;2022-11-20T03:21:28;14.82;;;11.55;;
59458;SDS011;45269;43.568;22.244;2022-11-20T03:23:54;6.68;;;5.70;;
59458;SDS011;45269;43.568;22.244;2022-11-20T03:26:24;10.35;;;7.68;;
59458;SDS011;45269;43.568;22.244;2022-11-20T03:31:15;6.83;;;6.03;;
59458;SDS011;45269;43.568;22.244;2022-11-20T03:33:41;5.35;;;4.80;;
59458;SDS011;45269;43.568;22.244;2022-11-20T03:36:08;4.65;;;4.07;;
59458;SDS011;45269;43.568;22.244;2022-11-20T03:38:33;6.07;;;4.60;;
59458;SDS011;45269;43.568;22.244;2022-11-20T03:41:00;4.75;;;4.10;;
59458;SDS011;45269;43.568;22.244;2022-11-20T03:43:25;3.78;;;2.80;;
59458;SDS011;45269;43.568;22.244;2022-11-20T03:45:51;10.57;;;8.35;;
59458;SDS011;45269;43.568;22.244;2022-11-20T03:48:16;9.15;;;5.43;;
59458;SDS011;45269;43.568;22.244;2022-11-20T03:50:42;13.73;;;12.13;;
59458;SDS011;45269;43.568;22.244;2022-11-20T03:53:07;10.13;;;8.48;;
59458;SDS011;45269;43.568;22.244;2022-11-20T03:55:32;12.70;;;9.57;;
59458;SDS011;45269;43.568;22.244;2022-11-20T03:57:58;17.98;;;13.43;;
59458;SDS011;45269;43.568;22.244;2022-11-20T04:00:23;14.13;;;11.15;;
59458;SDS011;45269;43.568;22.244;2022-11-20T04:02:48;13.15;;;10.02;;
59458;SDS011;45269;43.568;22.244;2022-11-20T04:05:14;15.95;;;13.15;;
59458;SDS011;45269;43.568;22.244;2022-11-20T04:07:39;10.70;;;8.75;;
59458;SDS011;45269;43.568;22.244;2022-11-20T04:10:04;11.43;;;10.23;;
59458;SDS011;45269;43.568;22.244;2022-11-20T04:12:33;15.35;;;12.38;;
59458;SDS011;45269;43.568;22.244;2022-11-20T04:14:58;12.05;;;10.00;;
59458;SDS011;45269;43.568;22.244;2022-11-20T04:17:24;4.30;;;3.78;;
59458;SDS011;45269;43.568;22.244;2022-11-20T04:19:49;12.45;;;8.32;;
59458;SDS011;45269;43.568;22.244;2022-11-20T04:22:14;13.32;;;11.02;;
59458;SDS011;45269;43.568;22.244;2022-11-20T04:24:40;12.43;;;9.35;;
59458;SDS011;45269;43.568;22.244;2022-11-20T04:27:05;8.75;;;7.85;;
59458;SDS011;45269;43.568;22.244;2022-11-20T04:29:31;5.80;;;5.22;;
59458;SDS011;45269;43.568;22.244;2022-11-20T04:31:56;9.13;;;8.15;;
59458;SDS011;45269;43.568;22.244;2022-11-20T04:34:21;6.00;;;4.85;;
59458;SDS011;45269;43.568;22.244;2022-11-20T04:36:47;6.57;;;5.35;;
59458;SDS011;45269;43.568;22.244;2022-11-20T04:39:13;11.75;;;9.98;;
59458;SDS011;45269;43.568;22.244;2022-11-20T04:41:39;16.67;;;15.00;;
59458;SDS011;45269;43.568;22.244;2022-11-20T04:44:05;11.93;;;10.80;;
59458;SDS011;45269;43.568;22.244;2022-11-20T04:46:32;8.70;;;7.88;;
59458;SDS011;45269;43.568;22.244;2022-11-20T04:48:58;21.67;;;18.27;;
59458;SDS011;45269;43.568;22.244;2022-11-20T04:51:23;16.30;;;12.00;;
59458;SDS011;45269;43.568;22.244;2022-11-20T04:53:49;42.50;;;38.38;;
59458;SDS011;45269;43.568;22.244;2022-11-20T04:56:14;22.10;;;19.70;;
59458;SDS011;45269;43.568;22.244;2022-11-20T04:58:40;16.52;;;13.30;;
59458;SDS011;45269;43.568;22.244;2022-11-20T05:01:15;13.98;;;12.45;;
59458;SDS011;45269;43.568;22.244;2022-11-20T05:03:41;15.07;;;12.98;;
59458;SDS011;45269;43.568;22.244;2022-11-20T05:06:07;14.65;;;13.07;;
59458;SDS011;45269;43.568;22.244;2022-11-20T05:08:33;11.13;;;9.25;;
59458;SDS011;45269;43.568;22.244;2022-11-20T05:11:09;12.65;;;11.13;;
59458;SDS011;45269;43.568;22.244;2022-11-20T05:13:34;10.23;;;9.00;;
59458;SDS011;45269;43.568;22.244;2022-11-20T05:16:01;9.10;;;8.23;;
59458;SDS011;45269;43.568;22.244;2022-11-20T05:18:26;8.63;;;7.72;;
59458;SDS011;45269;43.568;22.244;2022-11-20T05:20:55;9.00;;;6.88;;
59458;SDS011;45269;43.568;22.244;2022-11-20T05:23:20;5.05;;;4.47;;
59458;SDS011;45269;43.568;22.244;2022-11-20T05:25:45;4.80;;;4.20;;
59458;SDS011;45269;43.568;22.244;2022-11-20T05:28:11;3.85;;;2.92;;
59458;SDS011;45269;43.568;22.244;2022-11-20T05:30:36;15.32;;;11.93;;
59458;SDS011;45269;43.568;22.244;2022-11-20T05:33:01;26.08;;;17.77;;
59458;SDS011;45269;43.568;22.244;2022-11-20T05:35:27;27.50;;;23.50;;
59458;SDS011;45269;43.568;22.244;2022-11-20T05:37:52;27.08;;;22.88;;
59458;SDS011;45269;43.568;22.244;2022-11-20T05:40:17;20.48;;;18.27;;
59458;SDS011;45269;43.568;22.244;2022-11-20T05:42:43;20.27;;;18.08;;
59458;SDS011;45269;43.568;22.244;2022-11-20T05:45:08;10.85;;;9.48;;
59458;SDS011;45269;43.568;22.244;2022-11-20T05:47:34;5.38;;;4.28;;
59458;SDS011;45269;43.568;22.244;2022-11-20T05:50:00;9.02;;;7.38;;
59458;SDS011;45269;43.568;22.244;2022-11-20T05:52:29;10.57;;;8.50;;
59458;SDS011;45269;43.568;22.244;2022-11-20T05:54:54;29.65;;;21.35;;
59458;SDS011;45269;43.568;22.244;2022-11-20T05:57:19;21.90;;;15.48;;
59458;SDS011;45269;43.568;22.244;2022-11-20T05:59:45;15.70;;;12.05;;
59458;SDS011;45269;43.568;22.244;2022-11-20T06:02:10;28.15;;;21.10;;
59458;SDS011;45269;43.568;22.244;2022-11-20T06:04:35;49.45;;;38.08;;
59458;SDS011;45269;43.568;22.244;2022-11-20T06:07:01;33.03;;;27.48;;
59458;SDS011;45269;43.568;22.244;2022-11-20T06:09:26;21.58;;;19.25;;
59458;SDS011;45269;43.568;22.244;2022-11-20T06:11:51;15.27;;;13.77;;
59458;SDS011;45269;43.568;22.244;2022-11-20T06:14:17;8.75;;;7.95;;
59458;SDS011;45269;43.568;22.244;2022-11-20T06:16:42;17.40;;;15.63;;
59458;SDS011;45269;43.568;22.244;2022-11-20T06:19:07;22.23;;;19.38;;
59458;SDS011;45269;43.568;22.244;2022-11-20T06:21:33;17.77;;;15.95;;
59458;SDS011;45269;43.568;22.244;2022-11-20T06:23:58;21.15;;;18.95;;
59458;SDS011;45269;43.568;22.244;2022-11-20T06:26:25;12.23;;;10.82;;
59458;SDS011;45269;43.568;22.244;2022-11-20T06:28:51;21.88;;;18.23;;
59458;SDS011;45269;43.568;22.244;2022-11-20T06:31:17;23.65;;;18.02;;
59458;SDS011;45269;43.568;22.244;2022-11-20T06:33:43;17.13;;;14.13;;
59458;SDS011;45269;43.568;22.244;2022-11-20T06:36:09;19.83;;;16.23;;
59458;SDS011;45269;43.568;22.244;2022-11-20T06:38:35;17.58;;;14.40;;
59458;SDS011;45269;43.568;22.244;2022-11-20T06:41:00;17.60;;;15.23;;
59458;SDS011;45269;43.568;22.244;2022-11-20T06:43:25;18.05;;;15.10;;
59458;SDS011;45269;43.568;22.244;2022-11-20T06:45:52;36.25;;;24.15;;
59458;SDS011;45269;43.568;22.244;2022-11-20T06:48:18;35.78;;;27.00;;
59458;SDS011;45269;43.568;22.244;2022-11-20T06:50:43;448.30;;;224.68;;
59458;SDS011;45269;43.568;22.244;2022-11-20T06:53:08;39.65;;;27.05;;
59458;SDS011;45269;43.568;22.244;2022-11-20T06:55:33;21.90;;;18.30;;
59458;SDS011;45269;43.568;22.244;2022-11-20T06:57:59;16.48;;;12.68;;
59458;SDS011;45269;43.568;22.244;2022-11-20T07:00:24;23.30;;;17.83;;
59458;SDS011;45269;43.568;22.244;2022-11-20T07:02:50;49.47;;;37.45;;
59458;SDS011;45269;43.568;22.244;2022-11-20T07:05:15;41.10;;;33.40;;
59458;SDS011;45269;43.568;22.244;2022-11-20T07:07:41;56.67;;;42.08;;
59458;SDS011;45269;43.568;22.244;2022-11-20T07:10:06;53.72;;;43.33;;
59458;SDS011;45269;43.568;22.244;2022-11-20T07:12:32;45.17;;;37.38;;
59458;SDS011;45269;43.568;22.244;2022-11-20T07:14:57;52.55;;;37.25;;
59458;SDS011;45269;43.568;22.244;2022-11-20T07:17:22;61.28;;;45.15;;
59458;SDS011;45269;43.568;22.244;2022-11-20T07:19:48;45.40;;;34.55;;
59458;SDS011;45269;43.568;22.244;2022-11-20T07:22:13;203.98;;;118.25;;
59458;SDS011;45269;43.568;22.244;2022-11-20T07:24:38;221.32;;;131.80;;
59458;SDS011;45269;43.568;22.244;2022-11-20T07:27:04;170.20;;;124.20;;
59458;SDS011;45269;43.568;22.244;2022-11-20T07:29:30;96.07;;;77.45;;
59458;SDS011;45269;43.568;22.244;2022-11-20T07:31:55;41.22;;;36.92;;
59458;SDS011;45269;43.568;22.244;2022-11-20T07:34:21;28.63;;;25.70;;
59458;SDS011;45269;43.568;22.244;2022-11-20T07:36:47;21.45;;;19.35;;
59458;SDS011;45269;43.568;22.244;2022-11-20T07:39:12;24.35;;;21.83;;
59458;SDS011;45269;43.568;22.244;2022-11-20T07:41:37;89.78;;;79.95;;
59458;SDS011;45269;43.568;22.244;2022-11-20T07:44:03;117.03;;;95.88;;
59458;SDS011;45269;43.568;22.244;2022-11-20T07:46:28;85.35;;;68.28;;
59458;SDS011;45269;43.568;22.244;2022-11-20T07:48:53;146.02;;;112.85;;
59458;SDS011;45269;43.568;22.244;2022-11-20T07:51:19;123.35;;;101.28;;
59458;SDS011;45269;43.568;22.244;2022-11-20T07:53:44;68.90;;;57.50;;
59458;SDS011;45269;43.568;22.244;2022-11-20T07:56:09;65.97;;;52.08;;
59458;SDS011;45269;43.568;22.244;2022-11-20T07:58:35;214.13;;;147.00;;
59458;SDS011;45269;43.568;22.244;2022-11-20T08:01:04;263.98;;;183.32;;
59458;SDS011;45269;43.568;22.244;2022-11-20T08:03:29;302.25;;;217.60;;
59458;SDS011;45269;43.568;22.244;2022-11-20T08:05:57;135.27;;;96.18;;
59458;SDS011;45269;43.568;22.244;2022-11-20T08:08:23;62.80;;;48.40;;
59458;SDS011;45269;43.568;22.244;2022-11-20T08:10:48;66.10;;;55.67;;
59458;SDS011;45269;43.568;22.244;2022-11-20T08:13:13;65.82;;;54.60;;
59458;SDS011;45269;43.568;22.244;2022-11-20T08:15:57;38.00;;;31.92;;
59458;SDS011;45269;43.568;22.244;2022-11-20T08:18:22;36.60;;;32.80;;
59458;SDS011;45269;43.568;22.244;2022-11-20T08:20:48;38.63;;;33.25;;
59458;SDS011;45269;43.568;22.244;2022-11-20T08:23:13;25.15;;;22.60;;
59458;SDS011;45269;43.568;22.244;2022-11-20T08:25:39;35.58;;;31.80;;
59458;SDS011;45269;43.568;22.244;2022-11-20T08:28:05;36.05;;;32.45;;
59458;SDS011;45269;43.568;22.244;2022-11-20T08:30:31;40.15;;;35.95;;
59458;SDS011;45269;43.568;22.244;2022-11-20T08:33:04;54.15;;;48.38;;
59458;SDS011;45269;43.568;22.244;2022-11-20T08:35:36;46.00;;;41.33;;
59458;SDS011;45269;43.568;22.244;2022-11-20T08:38:03;42.33;;;38.15;;
59458;SDS011;45269;43.568;22.244;2022-11-20T08:40:28;42.22;;;38.13;;
59458;SDS011;45269;43.568;22.244;2022-11-20T08:42:54;44.72;;;40.22;;
59458;SDS011;45269;43.568;22.244;2022-11-20T08:45:19;46.15;;;41.45;;
59458;SDS011;45269;43.568;22.244;2022-11-20T08:47:44;54.33;;;48.05;;
59458;SDS011;45269;43.568;22.244;2022-11-20T08:50:11;82.00;;;71.68;;
59458;SDS011;45269;43.568;22.244;2022-11-20T08:52:37;71.32;;;63.55;;
59458;SDS011;45269;43.568;22.244;2022-11-20T08:55:03;65.22;;;58.10;;
59458;SDS011;45269;43.568;22.244;2022-11-20T08:57:30;62.08;;;54.75;;
59458;SDS011;45269;43.568;22.244;2022-11-20T08:59:56;124.43;;;108.28;;
59458;SDS011;45269;43.568;22.244;2022-11-20T09:02:21;131.57;;;105.78;;
59458;SDS011;45269;43.568;22.244;2022-11-20T09:04:47;115.03;;;98.68;;
59458;SDS011;45269;43.568;22.244;2022-11-20T09:07:12;124.63;;;103.00;;
59458;SDS011;45269;43.568;22.244;2022-11-20T09:09:37;119.00;;;104.05;;
59458;SDS011;45269;43.568;22.244;2022-11-20T09:12:03;102.78;;;83.80;;
59458;SDS011;45269;43.568;22.244;2022-11-20T09:14:28;80.15;;;70.75;;
59458;SDS011;45269;43.568;22.244;2022-11-20T09:16:55;91.55;;;81.75;;
59458;SDS011;45269;43.568;22.244;2022-11-20T09:19:21;80.05;;;70.45;;
59458;SDS011;45269;43.568;22.244;2022-11-20T09:21:46;37.75;;;33.75;;
59458;SDS011;45269;43.568;22.244;2022-11-20T09:24:11;58.95;;;52.55;;
59458;SDS011;45269;43.568;22.244;2022-11-20T09:26:37;81.70;;;70.05;;
59458;SDS011;45269;43.568;22.244;2022-11-20T09:29:02;76.03;;;66.25;;
59458;SDS011;45269;43.568;22.244;2022-11-20T09:31:28;120.90;;;103.85;;
59458;SDS011;45269;43.568;22.244;2022-11-20T09:33:53;88.13;;;71.00;;
59458;SDS011;45269;43.568;22.244;2022-11-20T09:36:18;213.75;;;145.00;;
59458;SDS011;45269;43.568;22.244;2022-11-20T09:38:47;124.20;;;95.55;;
59458;SDS011;45269;43.568;22.244;2022-11-20T09:52:14;49.15;;;41.35;;
59458;SDS011;45269;43.568;22.244;2022-11-20T09:54:17;50.65;;;38.25;;
59458;SDS011;45269;43.568;22.244;2022-11-20T09:56:47;70.10;;;62.58;;
59458;SDS011;45269;43.568;22.244;2022-11-20T10:01:52;92.00;;;70.35;;
59458;SDS011;45269;43.568;22.244;2022-11-20T10:04:19;65.82;;;48.42;;
59458;SDS011;45269;43.568;22.244;2022-11-20T10:06:55;73.82;;;61.90;;
59458;SDS011;45269;43.568;22.244;2022-11-20T10:09:25;50.53;;;45.30;;
59458;SDS011;45269;43.568;22.244;2022-11-20T10:27:37;140.80;;;115.13;;
59458;SDS011;45269;43.568;22.244;2022-11-20T10:32:38;37.05;;;33.13;;
59458;SDS011;45269;43.568;22.244;2022-11-20T10:37:29;39.55;;;31.02;;
59458;SDS011;45269;43.568;22.244;2022-11-20T10:42:26;40.75;;;34.22;;
59458;SDS011;45269;43.568;22.244;2022-11-20T10:44:58;30.40;;;27.40;;
59458;SDS011;45269;43.568;22.244;2022-11-20T10:47:27;162.45;;;137.20;;
59458;SDS011;45269;43.568;22.244;2022-11-20T10:49:53;127.75;;;109.47;;
59458;SDS011;45269;43.568;22.244;2022-11-20T10:54:51;58.47;;;52.42;;
59458;SDS011;45269;43.568;22.244;2022-11-20T10:57:20;33.63;;;29.40;;
59458;SDS011;45269;43.568;22.244;2022-11-20T11:00:00;110.43;;;72.60;;
59458;SDS011;45269;43.568;22.244;2022-11-20T11:02:31;269.42;;;209.25;;
59458;SDS011;45269;43.568;22.244;2022-11-20T11:04:58;190.98;;;149.68;;
59458;SDS011;45269;43.568;22.244;2022-11-20T11:07:44;114.95;;;92.45;;
59458;SDS011;45269;43.568;22.244;2022-11-20T11:10:17;51.88;;;39.47;;
59458;SDS011;45269;43.568;22.244;2022-11-20T11:12:43;199.20;;;128.38;;
59458;SDS011;45269;43.568;22.244;2022-11-20T11:15:11;53.22;;;43.03;;
59458;SDS011;45269;43.568;22.244;2022-11-20T11:17:37;43.58;;;34.67;;
59458;SDS011;45269;43.568;22.244;2022-11-20T11:27:48;166.60;;;129.82;;
59458;SDS011;45269;43.568;22.244;2022-11-20T11:30:15;102.47;;;82.68;;
59458;SDS011;45269;43.568;22.244;2022-11-20T11:32:41;115.05;;;99.38;;
59458;SDS011;45269;43.568;22.244;2022-11-20T11:35:11;180.48;;;142.60;;
59458;SDS011;45269;43.568;22.244;2022-11-20T11:37:43;123.65;;;100.70;;
59458;SDS011;45269;43.568;22.244;2022-11-20T11:40:10;117.22;;;96.85;;
59458;SDS011;45269;43.568;22.244;2022-11-20T11:42:40;78.47;;;65.82;;
59458;SDS011;45269;43.568;22.244;2022-11-20T11:45:07;70.55;;;57.13;;
59458;SDS011;45269;43.568;22.244;2022-11-20T11:50:21;90.05;;;66.20;;
59458;SDS011;45269;43.568;22.244;2022-11-20T11:52:58;73.45;;;57.60;;
59458;SDS011;45269;43.568;22.244;2022-11-20T11:55:31;52.13;;;46.38;;
59458;SDS011;45269;43.568;22.244;2022-11-20T12:00:45;61.47;;;55.08;;
59458;SDS011;45269;43.568;22.244;2022-11-20T12:03:18;93.28;;;83.72;;
59458;SDS011;45269;43.568;22.244;2022-11-20T12:05:48;65.70;;;58.95;;
59458;SDS011;45269;43.568;22.244;2022-11-20T12:08:16;63.33;;;56.50;;
59458;SDS011;45269;43.568;22.244;2022-11-20T12:10:47;87.13;;;76.97;;
59458;SDS011;45269;43.568;22.244;2022-11-20T12:15:38;117.88;;;93.70;;
59458;SDS011;45269;43.568;22.244;2022-11-20T12:18:09;65.00;;;57.72;;
59458;SDS011;45269;43.568;22.244;2022-11-20T12:20:41;93.10;;;83.28;;
59458;SDS011;45269;43.568;22.244;2022-11-20T12:23:21;99.45;;;89.35;;
59458;SDS011;45269;43.568;22.244;2022-11-20T12:25:51;108.95;;;97.97;;
59458;SDS011;45269;43.568;22.244;2022-11-20T12:35:52;177.65;;;148.55;;
59458;SDS011;45269;43.568;22.244;2022-11-20T12:43:26;217.25;;;157.55;;
59458;SDS011;45269;43.568;22.244;2022-11-20T12:46:14;115.13;;;96.93;;
59458;SDS011;45269;43.568;22.244;2022-11-20T12:48:50;109.93;;;94.57;;
59458;SDS011;45269;43.568;22.244;2022-11-20T12:51:39;138.82;;;124.05;;
59458;SDS011;45269;43.568;22.244;2022-11-20T12:56:54;74.90;;;64.47;;
59458;SDS011;45269;43.568;22.244;2022-11-20T13:02:18;63.00;;;54.53;;
59458;SDS011;45269;43.568;22.244;2022-11-20T13:05:03;60.80;;;54.50;;
59458;SDS011;45269;43.568;22.244;2022-11-20T13:07:31;62.97;;;55.05;;
59458;SDS011;45269;43.568;22.244;2022-11-20T13:09:58;47.95;;;42.85;;
59458;SDS011;45269;43.568;22.244;2022-11-20T13:12:25;59.55;;;53.22;;
59458;SDS011;45269;43.568;22.244;2022-11-20T13:19:49;62.10;;;56.08;;
59458;SDS011;45269;43.568;22.244;2022-11-20T13:22:23;129.82;;;115.97;;
59458;SDS011;45269;43.568;22.244;2022-11-20T13:24:52;62.70;;;56.05;;
59458;SDS011;45269;43.568;22.244;2022-11-20T13:27:19;40.38;;;35.58;;
59458;SDS011;45269;43.568;22.244;2022-11-20T13:29:47;66.72;;;58.38;;
59458;SDS011;45269;43.568;22.244;2022-11-20T13:32:24;86.18;;;65.35;;
59458;SDS011;45269;43.568;22.244;2022-11-20T13:34:53;44.13;;;36.47;;
59458;SDS011;45269;43.568;22.244;2022-11-20T13:37:37;193.73;;;131.05;;
59458;SDS011;45269;43.568;22.244;2022-11-20T13:42:35;127.70;;;100.80;;
59458;SDS011;45269;43.568;22.244;2022-11-20T13:45:02;128.02;;;98.50;;
59458;SDS011;45269;43.568;22.244;2022-11-20T13:47:33;157.43;;;119.25;;
59458;SDS011;45269;43.568;22.244;2022-11-20T13:50:00;109.05;;;91.60;;
59458;SDS011;45269;43.568;22.244;2022-11-20T14:02:29;71.47;;;59.53;;
59458;SDS011;45269;43.568;22.244;2022-11-20T14:04:56;121.45;;;98.43;;
59458;SDS011;45269;43.568;22.244;2022-11-20T14:07:23;95.32;;;85.05;;
59458;SDS011;45269;43.568;22.244;2022-11-20T14:09:54;102.95;;;91.10;;
59458;SDS011;45269;43.568;22.244;2022-11-20T14:12:27;145.98;;;114.63;;
59458;SDS011;45269;43.568;22.244;2022-11-20T14:14:53;103.90;;;84.22;;
59458;SDS011;45269;43.568;22.244;2022-11-20T14:19:45;103.57;;;89.65;;
59458;SDS011;45269;43.568;22.244;2022-11-20T14:22:24;120.10;;;105.35;;
59458;SDS011;45269;43.568;22.244;2022-11-20T14:25:06;138.57;;;123.65;;
59458;SDS011;45269;43.568;22.244;2022-11-20T14:27:38;147.57;;;131.52;;
59458;SDS011;45269;43.568;22.244;2022-11-20T14:30:05;181.02;;;161.60;;
59458;SDS011;45269;43.568;22.244;2022-11-20T14:32:31;171.93;;;152.15;;
59458;SDS011;45269;43.568;22.244;2022-11-20T14:34:57;67.35;;;57.35;;
59458;SDS011;45269;43.568;22.244;2022-11-20T14:37:25;66.55;;;53.65;;
59458;SDS011;45269;43.568;22.244;2022-11-20T14:39:52;42.03;;;37.08;;
59458;SDS011;45269;43.568;22.244;2022-11-20T14:42:20;54.70;;;48.80;;
59458;SDS011;45269;43.568;22.244;2022-11-20T14:44:46;50.55;;;41.53;;
59458;SDS011;45269;43.568;22.244;2022-11-20T14:47:13;61.97;;;49.83;;
59458;SDS011;45269;43.568;22.244;2022-11-20T14:49:39;113.40;;;86.50;;
59458;SDS011;45269;43.568;22.244;2022-11-20T14:52:21;132.40;;;111.53;;
59458;SDS011;45269;43.568;22.244;2022-11-20T14:54:51;115.72;;;89.05;;
59458;SDS011;45269;43.568;22.244;2022-11-20T14:59:42;50.53;;;44.57;;
59458;SDS011;45269;43.568;22.244;2022-11-20T15:02:11;24.88;;;20.65;;
59458;SDS011;45269;43.568;22.244;2022-11-20T15:07:11;40.85;;;34.88;;
59458;SDS011;45269;43.568;22.244;2022-11-20T15:09:36;189.80;;;128.20;;
59458;SDS011;45269;43.568;22.244;2022-11-20T15:12:02;131.80;;;95.80;;
59458;SDS011;45269;43.568;22.244;2022-11-20T15:14:28;106.03;;;81.97;;
59458;SDS011;45269;43.568;22.244;2022-11-20T15:16:54;93.72;;;74.03;;
59458;SDS011;45269;43.568;22.244;2022-11-20T15:19:20;50.17;;;44.90;;
59458;SDS011;45269;43.568;22.244;2022-11-20T15:21:46;60.83;;;53.78;;
59458;SDS011;45269;43.568;22.244;2022-11-20T15:24:11;85.35;;;64.10;;
59458;SDS011;45269;43.568;22.244;2022-11-20T15:26:37;56.15;;;39.78;;
59458;SDS011;45269;43.568;22.244;2022-11-20T15:29:04;182.13;;;137.38;;
59458;SDS011;45269;43.568;22.244;2022-11-20T15:31:29;82.10;;;70.15;;
59458;SDS011;45269;43.568;22.244;2022-11-20T15:33:55;101.65;;;89.13;;
59458;SDS011;45269;43.568;22.244;2022-11-20T15:36:20;38.17;;;33.00;;
59458;SDS011;45269;43.568;22.244;2022-11-20T15:38:45;109.63;;;97.63;;
59458;SDS011;45269;43.568;22.244;2022-11-20T15:41:11;143.27;;;124.90;;
59458;SDS011;45269;43.568;22.244;2022-11-20T15:43:36;106.00;;;93.95;;
59458;SDS011;45269;43.568;22.244;2022-11-20T15:46:02;87.70;;;77.25;;
59458;SDS011;45269;43.568;22.244;2022-11-20T15:48:33;89.13;;;79.60;;
59458;SDS011;45269;43.568;22.244;2022-11-20T15:51:15;119.78;;;106.95;;
59458;SDS011;45269;43.568;22.244;2022-11-20T15:53:42;159.00;;;140.25;;
59458;SDS011;45269;43.568;22.244;2022-11-20T15:56:09;136.95;;;116.70;;